Terminal Aerodrome Forecast
Issued by NWS Louisville, KY

Home | Current Version | Previous Version | Text Only | Print | Product List | Glossary On
Versions: 1 2 3 4 5 6 7 8 9 10 11 12
000
FTUS43 KLMK 301700
TAFBWG
TAF
KBWG 301721Z 3018/3118 27005KT P6SM SCT050 BKN200
     FM310300 00000KT P6SM SCT050 SCT250
     FM311300 VRB04KT P6SM SCT050 SCT250=

USA.gov is the U.S. government's official web portal to all federal, state and local government web resources and services.